createdAt,value
2022-11-28T00:01:21.220Z,46.58
2022-11-28T00:03:48.969Z,40.78
2022-11-28T00:06:17.057Z,34.42
2022-11-28T00:08:44.657Z,37.10
2022-11-28T00:11:13.997Z,33.80
2022-11-28T00:13:41.854Z,39.80
2022-11-28T00:16:13.360Z,50.47
2022-11-28T00:18:40.752Z,37.70
2022-11-28T00:21:10.674Z,35.10
2022-11-28T00:23:38.211Z,38.83
2022-11-28T00:26:09.267Z,44.72
2022-11-28T00:28:36.680Z,37.80
2022-11-28T00:31:04.490Z,33.20
2022-11-28T00:33:33.521Z,38.55
2022-11-28T00:36:02.537Z,41.67
2022-11-28T00:38:29.896Z,34.05
2022-11-28T00:41:18.722Z,35.50
2022-11-28T00:43:47.917Z,34.85
2022-11-28T00:46:16.633Z,39.72
2022-11-28T00:48:44.393Z,31.83
2022-11-28T00:51:14.490Z,35.58
2022-11-28T00:53:43.771Z,32.95
2022-11-28T00:56:13.551Z,30.27
2022-11-28T00:58:41.419Z,28.23
2022-11-28T01:01:15.883Z,31.90
2022-11-28T01:03:44.065Z,26.67
2022-11-28T01:06:11.964Z,24.52
2022-11-28T01:08:38.952Z,27.80
2022-11-28T01:11:12.780Z,30.85
2022-11-28T01:13:40.755Z,28.95
2022-11-28T01:16:08.777Z,28.15
2022-11-28T01:18:36.660Z,25.67
2022-11-28T01:21:05.555Z,28.33
2022-11-28T01:23:32.680Z,29.15
2022-11-28T01:26:01.796Z,28.95
2022-11-28T01:28:29.562Z,27.80
2022-11-28T01:30:56.615Z,36.00
2022-11-28T01:33:23.640Z,31.67
2022-11-28T01:35:56.114Z,29.60
2022-11-28T01:38:23.408Z,26.08
2022-11-28T01:40:51.231Z,30.70
2022-11-28T01:43:18.737Z,27.98
2022-11-28T01:45:45.757Z,32.03
2022-11-28T01:48:18.253Z,30.40
2022-11-28T01:50:50.028Z,30.30
2022-11-28T01:53:17.784Z,26.58
2022-11-28T01:56:07.799Z,25.02
2022-11-28T01:58:39.128Z,31.73
2022-11-28T02:01:07.086Z,29.55
2022-11-28T02:03:43.165Z,23.75
2022-11-28T02:06:12.645Z,25.20
2022-11-28T02:08:40.033Z,28.23
2022-11-28T02:11:36.430Z,24.98
2022-11-28T02:14:15.630Z,30.27
2022-11-28T02:16:57.704Z,25.23
2022-11-28T02:19:53.113Z,32.10
2022-11-28T02:22:24.841Z,27.40
2022-11-28T02:25:26.409Z,27.30
2022-11-28T02:27:56.668Z,21.77
2022-11-28T02:31:02.489Z,25.40
2022-11-28T02:33:29.411Z,29.33
2022-11-28T02:36:13.874Z,26.23
2022-11-28T02:39:12.607Z,23.30
2022-11-28T02:41:54.154Z,27.25
2022-11-28T02:44:25.341Z,22.05
2022-11-28T02:46:59.849Z,27.05
2022-11-28T02:52:13.368Z,26.27
2022-11-28T02:54:43.028Z,33.78
2022-11-28T02:57:10.909Z,33.85
2022-11-28T02:59:37.841Z,37.72
2022-11-28T03:02:17.025Z,32.60
2022-11-28T03:04:47.182Z,36.83
2022-11-28T03:07:24.818Z,32.80
2022-11-28T03:10:16.351Z,34.22
2022-11-28T03:13:05.164Z,32.17
2022-11-28T03:15:50.112Z,32.17
2022-11-28T03:18:29.367Z,27.23
2022-11-28T03:21:07.893Z,24.92
2022-11-28T03:23:49.156Z,32.00
2022-11-28T03:26:29.845Z,30.98
2022-11-28T03:29:12.528Z,27.23
2022-11-28T03:31:45.452Z,27.92
2022-11-28T03:34:17.362Z,29.77
2022-11-28T03:36:50.669Z,25.33
2022-11-28T03:39:26.003Z,28.35
2022-11-28T03:42:03.336Z,25.77
2022-11-28T03:44:37.187Z,32.35
2022-11-28T03:47:06.369Z,29.30
2022-11-28T03:49:41.863Z,26.67
2022-11-28T03:52:21.289Z,29.15
2022-11-28T03:54:57.177Z,25.67
2022-11-28T03:57:38.986Z,25.12
2022-11-28T04:00:11.153Z,31.40
2022-11-28T04:03:07.963Z,22.75
2022-11-28T04:05:37.886Z,26.90
2022-11-28T04:08:17.633Z,30.30
2022-11-28T04:10:52.830Z,29.00
2022-11-28T04:13:28.944Z,27.42
2022-11-28T04:16:15.798Z,25.08
2022-11-28T04:19:08.153Z,29.75
2022-11-28T04:21:46.549Z,22.48
2022-11-28T04:24:22.967Z,26.17
2022-11-28T04:27:01.946Z,24.48
2022-11-28T04:29:34.522Z,30.10
2022-11-28T04:32:03.968Z,25.92
2022-11-28T04:34:33.420Z,24.12
2022-11-28T04:37:05.458Z,24.83
2022-11-28T04:39:37.970Z,22.33
2022-11-28T04:42:16.804Z,21.27
2022-11-28T04:44:53.549Z,27.70
2022-11-28T04:47:21.121Z,26.23
2022-11-28T04:49:48.610Z,26.37
2022-11-28T04:52:40.531Z,20.92
2022-11-28T04:55:30.798Z,29.08
2022-11-28T04:58:21.849Z,21.70
2022-11-28T05:00:52.474Z,26.00
2022-11-28T05:03:20.309Z,26.98
2022-11-28T05:05:49.782Z,24.98
2022-11-28T05:08:18.349Z,25.98
2022-11-28T05:10:46.036Z,26.65
2022-11-28T05:13:13.115Z,25.02
2022-11-28T05:15:40.486Z,23.77
2022-11-28T05:18:07.914Z,29.02
2022-11-28T05:20:36.368Z,25.27
2022-11-28T05:23:03.816Z,27.62
2022-11-28T05:25:30.856Z,25.52
2022-11-28T05:27:57.857Z,25.45
2022-11-28T05:30:25.105Z,33.17
2022-11-28T05:32:52.812Z,27.10
2022-11-28T05:35:19.794Z,28.27
2022-11-28T05:37:47.179Z,27.55
2022-11-28T05:40:14.257Z,25.52
2022-11-28T05:42:41.281Z,24.75
2022-11-28T05:45:09.063Z,27.58
2022-11-28T05:47:36.175Z,31.02
2022-11-28T05:50:04.244Z,34.40
2022-11-28T05:52:32.392Z,33.38
2022-11-28T05:55:00.381Z,36.58
2022-11-28T05:57:29.980Z,28.08
2022-11-28T05:59:57.589Z,33.00
2022-11-28T06:02:27.027Z,34.88
2022-11-28T06:04:54.522Z,33.85
2022-11-28T06:07:21.751Z,32.35
2022-11-28T06:09:48.856Z,31.27
2022-11-28T06:12:16.166Z,32.30
2022-11-28T06:14:43.201Z,31.17
2022-11-28T06:17:10.438Z,30.85
2022-11-28T06:19:37.780Z,27.50
2022-11-28T06:22:04.864Z,33.97
2022-11-28T06:24:31.864Z,30.75
2022-11-28T06:26:59.133Z,34.38
2022-11-28T06:29:28.865Z,39.65
2022-11-28T06:31:56.520Z,36.45
2022-11-28T06:34:24.101Z,35.78
2022-11-28T06:36:51.169Z,43.53
2022-11-28T06:39:18.240Z,35.63
2022-11-28T06:41:45.622Z,36.08
2022-11-28T06:44:14.660Z,30.88
2022-11-28T06:46:42.297Z,27.70
2022-11-28T06:49:15.802Z,39.22
2022-11-28T06:51:43.023Z,32.13
2022-11-28T06:54:10.294Z,25.90
2022-11-28T06:56:37.591Z,31.83
2022-11-28T06:59:04.613Z,36.83
2022-11-28T07:01:32.614Z,40.05
2022-11-28T07:03:59.879Z,38.33
2022-11-28T07:06:27.833Z,35.83
2022-11-28T07:08:58.915Z,40.25
2022-11-28T07:11:28.639Z,33.97
2022-11-28T07:13:57.028Z,31.67
2022-11-28T07:16:29.847Z,30.20
2022-11-28T07:18:58.187Z,39.80
2022-11-28T07:21:26.235Z,34.65
2022-11-28T07:23:53.508Z,43.10
2022-11-28T07:26:21.959Z,23.87
2022-11-28T07:28:50.053Z,40.83
2022-11-28T07:31:18.763Z,33.67
2022-11-28T07:33:48.035Z,35.28
2022-11-28T07:36:18.069Z,30.95
2022-11-28T07:38:54.206Z,35.00
2022-11-28T07:41:26.223Z,29.70
2022-11-28T07:43:59.229Z,32.50
2022-11-28T07:46:27.907Z,33.13
2022-11-28T07:48:55.339Z,27.60
2022-11-28T07:51:28.007Z,30.48
2022-11-28T07:53:55.743Z,27.30
2022-11-28T07:56:31.902Z,27.65
2022-11-28T07:59:07.400Z,32.60
2022-11-28T08:01:36.444Z,22.83
2022-11-28T08:04:08.996Z,23.95
2022-11-28T08:06:39.311Z,24.02
2022-11-28T08:09:07.245Z,29.25
2022-11-28T08:11:35.122Z,28.30
2022-11-28T08:14:03.234Z,27.87
2022-11-28T08:16:31.108Z,27.58
2022-11-28T08:19:02.091Z,23.17
2022-11-28T08:21:32.132Z,25.62
2022-11-28T08:24:01.989Z,32.60
2022-11-28T08:26:31.131Z,22.10
2022-11-28T08:28:59.563Z,25.65
2022-11-28T08:31:33.041Z,26.67
2022-11-28T08:34:02.748Z,23.77
2022-11-28T08:36:30.284Z,26.73
2022-11-28T08:41:46.592Z,24.08
2022-11-28T08:44:13.719Z,24.52
2022-11-28T08:46:40.789Z,25.92
2022-11-28T08:49:08.097Z,23.25
2022-11-28T08:51:35.199Z,29.67
2022-11-28T08:54:02.234Z,25.95
2022-11-28T08:56:29.608Z,24.48
2022-11-28T08:58:56.596Z,26.05
2022-11-28T09:01:26.133Z,29.17
2022-11-28T09:03:55.046Z,26.80
2022-11-28T09:06:23.404Z,27.45
2022-11-28T09:08:51.475Z,22.52
2022-11-28T09:11:21.440Z,21.80
2022-11-28T09:13:49.201Z,24.58
2022-11-28T09:16:16.394Z,24.27
2022-11-28T09:18:43.760Z,23.05
2022-11-28T09:21:13.287Z,29.42
2022-11-28T09:23:43.272Z,25.17
2022-11-28T09:26:12.797Z,24.80
2022-11-28T09:28:40.968Z,29.17
2022-11-28T09:31:08.391Z,24.00
2022-11-28T09:33:36.194Z,23.30
2022-11-28T09:36:11.127Z,27.92
2022-11-28T09:38:39.639Z,24.10
2022-11-28T09:41:21.959Z,21.67
2022-11-28T09:43:54.738Z,21.83
2022-11-28T09:46:28.972Z,23.12
2022-11-28T09:49:01.011Z,29.77
2022-11-28T09:51:52.734Z,28.50
2022-11-28T09:54:32.349Z,27.92
2022-11-28T09:57:02.106Z,27.62
2022-11-28T09:59:30.622Z,24.80
2022-11-28T10:02:05.052Z,23.70
2022-11-28T10:04:41.077Z,23.20
2022-11-28T10:07:39.400Z,20.48
2022-11-28T10:10:17.430Z,32.15
2022-11-28T10:12:54.019Z,25.40
2022-11-28T10:15:27.578Z,27.85
2022-11-28T10:18:25.600Z,22.27
2022-11-28T10:20:57.879Z,23.52
2022-11-28T10:23:38.314Z,25.85
2022-11-28T10:26:23.907Z,24.98
2022-11-28T10:28:55.589Z,28.67
2022-11-28T10:31:39.452Z,28.38
2022-11-28T10:34:16.655Z,24.58
2022-11-28T10:37:06.311Z,25.20
2022-11-28T10:39:37.421Z,23.90
2022-11-28T10:42:22.891Z,33.50
2022-11-28T10:44:55.963Z,31.02
2022-11-28T10:47:35.725Z,25.40
2022-11-28T10:50:14.829Z,25.58
2022-11-28T10:53:01.680Z,29.20
2022-11-28T10:55:37.690Z,26.17
2022-11-28T10:58:17.594Z,27.98
2022-11-28T11:00:49.295Z,26.45
2022-11-28T11:03:19.209Z,25.42
2022-11-28T11:05:46.232Z,24.45
2022-11-28T11:08:20.821Z,30.85
2022-11-28T11:11:07.190Z,31.95
2022-11-28T11:13:55.350Z,26.92
2022-11-28T11:16:23.015Z,26.67
2022-11-28T11:18:49.967Z,26.90
2022-11-28T11:21:19.562Z,32.83
2022-11-28T11:23:48.433Z,30.85
2022-11-28T11:26:32.342Z,29.50
2022-11-28T11:28:59.854Z,30.15
2022-11-28T11:31:32.066Z,35.28
2022-11-28T11:34:19.437Z,33.10
2022-11-28T11:36:46.606Z,28.98
2022-11-28T11:39:13.804Z,32.72
2022-11-28T11:42:12.171Z,33.42
2022-11-28T11:44:39.578Z,32.13
2022-11-28T11:47:09.055Z,33.00
2022-11-28T11:49:38.387Z,35.03
2022-11-28T11:52:13.420Z,33.30
2022-11-28T11:54:58.092Z,36.67
2022-11-28T11:57:46.920Z,31.87
2022-11-28T12:00:13.946Z,33.28
2022-11-28T12:03:11.569Z,34.03
2022-11-28T12:06:14.327Z,35.80
2022-11-28T12:08:46.642Z,35.50
2022-11-28T12:11:16.555Z,34.90
2022-11-28T12:13:43.965Z,37.97
2022-11-28T12:16:23.506Z,36.30
2022-11-28T12:19:02.921Z,34.65
2022-11-28T12:21:48.819Z,34.42
2022-11-28T12:24:24.595Z,28.70
2022-11-28T12:27:04.694Z,35.42
2022-11-28T12:29:38.669Z,44.13
2022-11-28T12:32:34.147Z,33.50
2022-11-28T12:35:23.423Z,33.15
2022-11-28T12:40:50.231Z,30.50
2022-11-28T12:43:51.338Z,37.03
2022-11-28T12:46:36.427Z,46.28
2022-11-28T12:49:17.515Z,45.40
2022-11-28T12:51:47.631Z,52.80
2022-11-28T12:54:42.406Z,52.08
2022-11-28T12:57:26.148Z,41.17
2022-11-28T13:00:10.259Z,33.67
2022-11-28T13:02:48.852Z,31.05
2022-11-28T13:05:30.829Z,30.62
2022-11-28T13:08:19.636Z,39.35
2022-11-28T13:11:24.373Z,37.20
2022-11-28T13:14:37.808Z,31.05
2022-11-28T13:17:29.009Z,36.50
2022-11-28T13:20:02.767Z,35.45
2022-11-28T13:22:52.510Z,34.95
2022-11-28T13:25:46.981Z,35.00
2022-11-28T13:28:28.349Z,32.05
2022-11-28T13:31:02.468Z,34.13
2022-11-28T13:33:48.305Z,37.33
2022-11-28T13:39:55.713Z,34.20
2022-11-28T13:43:03.005Z,37.50
2022-11-28T13:45:42.460Z,31.73
2022-11-28T13:49:13.323Z,42.75
2022-11-28T13:51:41.308Z,40.38
2022-11-28T13:54:18.157Z,37.25
2022-11-28T13:56:47.857Z,40.12
2022-11-28T13:59:20.355Z,38.88
2022-11-28T14:01:57.813Z,38.88
2022-11-28T14:04:27.853Z,31.02
2022-11-28T14:07:07.419Z,41.20
2022-11-28T14:10:01.551Z,40.72
2022-11-28T14:12:35.443Z,42.58
2022-11-28T14:15:27.867Z,47.00
2022-11-28T14:18:54.478Z,43.47
2022-11-28T14:21:22.774Z,41.78
2022-11-28T14:24:04.984Z,41.47
2022-11-28T14:26:39.611Z,38.97
2022-11-28T14:29:24.215Z,43.20
2022-11-28T14:32:21.731Z,39.95
2022-11-28T14:34:48.756Z,38.83
2022-11-28T14:37:21.884Z,34.88
2022-11-28T14:39:50.729Z,43.85
2022-11-28T14:42:44.163Z,47.42
2022-11-28T14:45:42.151Z,38.15
2022-11-28T14:48:24.701Z,40.70
2022-11-28T14:51:00.858Z,45.03
2022-11-28T14:53:34.709Z,44.63
2022-11-28T14:56:13.641Z,39.50
2022-11-28T14:58:47.259Z,46.97
2022-11-28T15:01:23.071Z,39.03
2022-11-28T15:04:03.559Z,46.45
2022-11-28T15:06:37.965Z,41.67
2022-11-28T15:09:21.434Z,37.10
2022-11-28T15:12:08.320Z,42.42
2022-11-28T15:14:37.722Z,38.13
2022-11-28T15:17:10.989Z,43.53
2022-11-28T15:19:49.811Z,40.47
2022-11-28T15:22:46.773Z,42.92
2022-11-28T15:25:23.152Z,38.78
2022-11-28T15:27:50.864Z,51.92
2022-11-28T15:30:23.882Z,50.17
2022-11-28T15:32:58.507Z,46.37
2022-11-28T15:35:26.967Z,47.53
2022-11-28T15:37:57.979Z,46.22
2022-11-28T15:40:29.839Z,49.60
2022-11-28T15:42:58.383Z,50.30
2022-11-28T15:45:29.776Z,55.33
2022-11-28T15:47:57.683Z,47.65
2022-11-28T15:50:28.324Z,45.60
2022-11-28T15:53:16.525Z,39.63
2022-11-28T15:55:44.058Z,43.60
2022-11-28T15:58:12.068Z,43.67
2022-11-28T16:00:45.912Z,45.10
2022-11-28T16:03:20.289Z,52.00
2022-11-28T16:05:49.240Z,45.75
2022-11-28T16:08:40.258Z,61.22
2022-11-28T16:11:09.824Z,47.55
2022-11-28T16:13:40.495Z,45.33
2022-11-28T16:16:21.927Z,47.70
2022-11-28T16:18:57.697Z,48.78
2022-11-28T16:21:53.392Z,46.33
2022-11-28T16:24:27.400Z,47.22
2022-11-28T16:26:59.953Z,38.60
2022-11-28T16:29:34.812Z,40.22
2022-11-28T16:32:21.830Z,49.67
2022-11-28T16:34:52.050Z,45.88
2022-11-28T16:37:25.575Z,44.30
2022-11-28T16:40:06.359Z,47.88
2022-11-28T16:42:35.019Z,39.38
2022-11-28T16:45:17.492Z,46.63
2022-11-28T16:47:45.692Z,43.63
2022-11-28T16:50:26.621Z,43.97
2022-11-28T16:52:55.537Z,42.40
2022-11-28T16:55:41.454Z,44.65
2022-11-28T16:58:16.459Z,41.28
2022-11-28T17:00:51.450Z,44.97
2022-11-28T17:03:43.562Z,47.67
2022-11-28T17:06:34.465Z,46.78
2022-11-28T17:09:01.848Z,46.15
2022-11-28T17:11:34.168Z,53.28
2022-11-28T17:14:02.729Z,46.17
2022-11-28T17:16:33.398Z,51.22
2022-11-28T17:19:00.582Z,59.90
2022-11-28T17:21:40.543Z,42.10
2022-11-28T17:24:26.419Z,58.80
2022-11-28T17:26:54.462Z,49.15
2022-11-28T17:29:22.791Z,53.30
2022-11-28T17:31:50.344Z,55.17
2022-11-28T17:34:30.792Z,52.08
2022-11-28T17:37:02.790Z,42.80
2022-11-28T17:39:29.870Z,44.40
2022-11-28T17:41:57.639Z,56.13
2022-11-28T17:44:31.032Z,55.42
2022-11-28T17:47:01.665Z,45.88
2022-11-28T17:49:30.807Z,51.50
2022-11-28T17:51:58.668Z,57.05
2022-11-28T17:54:26.606Z,55.78
2022-11-28T17:56:54.850Z,53.53
2022-11-28T17:59:24.271Z,50.95
2022-11-28T18:01:51.424Z,58.10
2022-11-28T18:04:23.473Z,49.42
2022-11-28T18:06:50.649Z,49.45
2022-11-28T18:09:17.637Z,48.85
2022-11-28T18:11:46.784Z,52.30
2022-11-28T18:14:14.472Z,52.42
2022-11-28T18:16:43.891Z,62.75
2022-11-28T18:19:11.445Z,58.78
2022-11-28T18:21:39.005Z,54.95
2022-11-28T18:24:06.363Z,55.10
2022-11-28T18:26:33.696Z,53.40
2022-11-28T18:29:00.904Z,54.25
2022-11-28T18:31:29.928Z,57.13
2022-11-28T18:34:02.197Z,49.28
2022-11-28T18:36:35.255Z,46.37
2022-11-28T18:39:07.328Z,56.25
2022-11-28T18:41:34.756Z,43.15
2022-11-28T18:44:04.661Z,49.55
2022-11-28T18:46:34.127Z,46.80
2022-11-28T18:49:01.692Z,46.15
2022-11-28T18:51:32.043Z,54.22
2022-11-28T18:53:59.472Z,51.47
2022-11-28T18:56:27.093Z,53.33
2022-11-28T18:58:56.843Z,57.62
2022-11-28T19:01:31.523Z,44.10
2022-11-28T19:04:02.141Z,52.60
2022-11-28T19:06:30.476Z,44.25
2022-11-28T19:08:59.863Z,48.80
2022-11-28T19:11:28.755Z,50.83
2022-11-28T19:13:57.502Z,48.33
2022-11-28T19:16:27.456Z,49.92
2022-11-28T19:18:55.601Z,53.10
2022-11-28T19:21:27.923Z,48.22
2022-11-28T19:23:56.742Z,43.67
2022-11-28T19:26:25.921Z,51.28
2022-11-28T19:28:54.118Z,54.92
2022-11-28T19:31:23.893Z,47.80
2022-11-28T19:34:00.465Z,45.15
2022-11-28T19:36:31.808Z,45.75
2022-11-28T19:39:00.194Z,44.83
2022-11-28T19:41:28.459Z,44.95
2022-11-28T19:43:56.183Z,58.50
2022-11-28T19:46:23.836Z,51.15
2022-11-28T19:48:51.767Z,54.45
2022-11-28T19:51:20.030Z,50.05
2022-11-28T19:53:47.913Z,57.38
2022-11-28T19:56:18.078Z,55.83
2022-11-28T19:58:45.988Z,52.08
2022-11-28T20:01:16.295Z,51.40
2022-11-28T20:03:47.660Z,54.90
2022-11-28T20:06:19.202Z,54.58
2022-11-28T20:08:48.267Z,50.12
2022-11-28T20:11:24.252Z,47.70
2022-11-28T20:14:06.811Z,45.80
2022-11-28T20:16:36.121Z,45.38
2022-11-28T20:19:05.279Z,50.40
2022-11-28T20:21:34.173Z,56.03
2022-11-28T20:24:04.671Z,54.30
2022-11-28T20:26:37.741Z,48.60
2022-11-28T20:29:05.493Z,53.65
2022-11-28T20:31:36.573Z,46.60
2022-11-28T20:34:04.871Z,51.13
2022-11-28T20:36:32.503Z,48.38
2022-11-28T20:39:01.166Z,42.22
2022-11-28T20:41:29.022Z,45.67
2022-11-28T20:43:56.504Z,45.10
2022-11-28T20:46:28.062Z,43.75
2022-11-28T20:48:57.911Z,48.05
2022-11-28T20:51:27.353Z,47.38
2022-11-28T20:53:56.147Z,52.08
2022-11-28T20:56:41.830Z,46.60
2022-11-28T20:59:19.150Z,45.55
2022-11-28T21:01:46.195Z,42.45
2022-11-28T21:04:15.491Z,39.65
2022-11-28T21:06:44.076Z,54.08
2022-11-28T21:09:13.610Z,50.20
2022-11-28T21:11:58.117Z,53.75
2022-11-28T21:14:28.696Z,51.72
2022-11-28T21:16:56.121Z,44.08
2022-11-28T21:19:23.298Z,48.10
2022-11-28T21:21:50.661Z,52.90
2022-11-28T21:24:17.867Z,50.75
2022-11-28T21:26:52.633Z,50.08
2022-11-28T21:29:22.226Z,44.47
2022-11-28T21:31:49.405Z,48.45
2022-11-28T21:34:17.576Z,54.00
2022-11-28T21:36:45.455Z,49.60
2022-11-28T21:39:18.835Z,54.42
2022-11-28T21:41:46.611Z,48.60
2022-11-28T21:44:13.830Z,46.85
2022-11-28T21:46:40.982Z,46.47
2022-11-28T21:49:08.541Z,49.97
2022-11-28T21:51:35.963Z,45.33
2022-11-28T21:54:02.978Z,45.85
2022-11-28T21:56:31.352Z,48.80
2022-11-28T21:58:58.499Z,42.35
2022-11-28T22:01:25.619Z,45.72
2022-11-28T22:03:54.465Z,49.10
2022-11-28T22:06:25.608Z,43.65
2022-11-28T22:08:54.165Z,51.13
2022-11-28T22:11:22.722Z,49.58
2022-11-28T22:13:50.621Z,45.60
2022-11-28T22:16:22.672Z,47.83
2022-11-28T22:18:51.503Z,48.28
2022-11-28T22:24:08.308Z,43.45
2022-11-28T22:26:36.255Z,37.05
2022-11-28T22:29:04.172Z,50.05
2022-11-28T22:31:32.167Z,43.38
2022-11-28T22:33:59.754Z,45.28
2022-11-28T22:36:26.914Z,47.22
2022-11-28T22:38:55.573Z,45.78
2022-11-28T22:41:28.886Z,44.30
2022-11-28T22:44:00.233Z,44.15
2022-11-28T22:46:29.138Z,48.38
2022-11-28T22:49:00.375Z,46.33
2022-11-28T22:51:28.955Z,47.83
2022-11-28T22:53:57.763Z,49.55
2022-11-28T22:56:26.274Z,48.22
2022-11-28T22:58:54.691Z,43.33
2022-11-28T23:01:32.551Z,46.37
2022-11-28T23:04:00.433Z,51.80
2022-11-28T23:06:30.581Z,50.03
2022-11-28T23:08:59.413Z,42.47
2022-11-28T23:11:30.347Z,51.92
2022-11-28T23:13:59.185Z,44.40
2022-11-28T23:16:33.645Z,60.15
2022-11-28T23:19:05.780Z,49.50
2022-11-28T23:21:36.003Z,52.97
2022-11-28T23:24:04.177Z,43.28
2022-11-28T23:26:33.448Z,45.80
2022-11-28T23:29:04.787Z,47.25
2022-11-28T23:31:35.676Z,52.92
2022-11-28T23:34:03.875Z,60.90
2022-11-28T23:36:41.873Z,52.13
2022-11-28T23:39:21.528Z,55.38
2022-11-28T23:41:49.136Z,55.75
2022-11-28T23:44:18.275Z,56.15
2022-11-28T23:46:46.461Z,45.47
2022-11-28T23:49:14.035Z,45.15
2022-11-28T23:51:41.405Z,84.40
2022-11-28T23:54:09.698Z,73.65
2022-11-28T23:56:38.508Z,58.47
2022-11-28T23:59:07.979Z,37.17
